This is the latest recevied weather packets stored in our database for station/object YF9UAG-17. If no packets are shown the sender has not sent any weather packets the latest 10 day(s).
| Time | Temp. | Humidity | Pressure | Rain* | Wind** | Luminosity | Snow |
|---|---|---|---|---|---|---|---|
| 1787553345 | 30.56° C | 49% | 1031.3 hPa | - | - | - | - |
| 1787552742 | 30.56° C | 51% | 1031.4 hPa | - | - | - | - |
| 1787552138 | 30.56° C | 50% | 1031.5 hPa | - | - | - | - |
| 1787551535 | 30° C | 50% | 1031.7 hPa | - | - | - | - |
| 1787550931 | 30° C | 51% | 1031.9 hPa | - | - | - | - |
| 1787550328 | 30.56° C | 50% | 1031.9 hPa | - | - | - | - |
| 1787549725 | 31.11° C | 46% | 1032.1 hPa | - | - | - | - |
| 1787549121 | 30° C | 48% | 1032.3 hPa | - | - | - | - |
| 1787548519 | 29.44° C | 49% | 1032.4 hPa | - | - | - | - |
| 1787547916 | 30° C | 49% | 1032.7 hPa | - | - | - | - |
| 1787547313 | 29.44° C | 51% | 1032.9 hPa | - | - | - | - |
| 1787546709 | 29.44° C | 51% | 1032.9 hPa | - | - | - | - |
| 1787546106 | 28.89° C | 52% | 1033.3 hPa | - | - | - | - |
| 1787545503 | 30° C | 47% | 1033.5 hPa | - | - | - | - |
| 1787544900 | 28.89° C | 51% | 1033.8 hPa | - | - | - | - |
| 1787544297 | 28.89° C | 52% | 1034 hPa | - | - | - | - |
| 1787543694 | 28.89° C | 52% | 1034.2 hPa | - | - | - | - |
| 1787543091 | 28.33° C | 53% | 1034.4 hPa | - | - | - | - |
| 1787542488 | 28.33° C | 53% | 1034.6 hPa | - | - | - | - |
| 1787541885 | 28.33° C | 52% | 1034.7 hPa | - | - | - | - |
| 1787541282 | 28.33° C | 53% | 1034.8 hPa | - | - | - | - |
| 1787540679 | 28.33° C | 55% | 1034.9 hPa | - | - | - | - |
| 1787540076 | 28.33° C | 54% | 1035 hPa | - | - | - | - |
| 1787539473 | 28.33° C | 54% | 1035.1 hPa | - | - | - | - |
| 1787538870 | 28.33° C | 54% | 1035.4 hPa | - | - | - | - |
* Rain since midnight (hover to see other rain measurements)
** Current wind speed in m/s (hover to see current wind gust speed)